sensor_id;sensor_type;location;lat;lon;timestamp;P1;durP1;ratioP1;P2;durP2;ratioP2
72674;SDS011;60752;53.962;9.614;2023-04-27T00:01:18;4.57;;;1.23;;
72674;SDS011;60752;53.962;9.614;2023-04-27T00:31:19;6.57;;;1.53;;
72674;SDS011;60752;53.962;9.614;2023-04-27T01:01:21;2.47;;;0.97;;
72674;SDS011;60752;53.962;9.614;2023-04-27T01:31:24;6.77;;;1.23;;
72674;SDS011;60752;53.962;9.614;2023-04-27T02:01:25;5.10;;;1.40;;
72674;SDS011;60752;53.962;9.614;2023-04-27T02:31:27;4.27;;;1.10;;
72674;SDS011;60752;53.962;9.614;2023-04-27T03:01:29;4.40;;;1.40;;
72674;SDS011;60752;53.962;9.614;2023-04-27T03:31:31;4.17;;;1.23;;
72674;SDS011;60752;53.962;9.614;2023-04-27T04:01:33;5.27;;;1.40;;
72674;SDS011;60752;53.962;9.614;2023-04-27T04:31:34;5.20;;;1.80;;
72674;SDS011;60752;53.962;9.614;2023-04-27T05:01:36;4.63;;;1.40;;
72674;SDS011;60752;53.962;9.614;2023-04-27T05:31:38;6.07;;;1.60;;
72674;SDS011;60752;53.962;9.614;2023-04-27T06:01:40;7.67;;;1.53;;
72674;SDS011;60752;53.962;9.614;2023-04-27T06:31:42;6.37;;;1.70;;
72674;SDS011;60752;53.962;9.614;2023-04-27T07:01:44;4.83;;;1.63;;
72674;SDS011;60752;53.962;9.614;2023-04-27T07:31:45;3.60;;;1.33;;
72674;SDS011;60752;53.962;9.614;2023-04-27T08:01:47;6.87;;;2.03;;
72674;SDS011;60752;53.962;9.614;2023-04-27T08:31:49;4.60;;;1.57;;
72674;SDS011;60752;53.962;9.614;2023-04-27T09:01:51;3.77;;;1.17;;
72674;SDS011;60752;53.962;9.614;2023-04-27T09:31:53;5.53;;;1.73;;
72674;SDS011;60752;53.962;9.614;2023-04-27T10:01:55;4.73;;;1.50;;
72674;SDS011;60752;53.962;9.614;2023-04-27T10:32:04;3.63;;;1.40;;
72674;SDS011;60752;53.962;9.614;2023-04-27T11:02:07;4.47;;;1.70;;
72674;SDS011;60752;53.962;9.614;2023-04-27T11:32:16;4.53;;;2.03;;
72674;SDS011;60752;53.962;9.614;2023-04-27T12:02:19;5.33;;;2.63;;
72674;SDS011;60752;53.962;9.614;2023-04-27T12:32:21;5.33;;;1.50;;
72674;SDS011;60752;53.962;9.614;2023-04-27T13:02:23;5.50;;;2.40;;
72674;SDS011;60752;53.962;9.614;2023-04-27T13:32:26;6.43;;;2.63;;
72674;SDS011;60752;53.962;9.614;2023-04-27T14:02:28;6.53;;;2.50;;
72674;SDS011;60752;53.962;9.614;2023-04-27T14:32:30;9.77;;;2.93;;
72674;SDS011;60752;53.962;9.614;2023-04-27T15:02:32;6.10;;;2.30;;
72674;SDS011;60752;53.962;9.614;2023-04-27T15:32:34;7.77;;;2.37;;
72674;SDS011;60752;53.962;9.614;2023-04-27T16:02:36;4.07;;;2.03;;
72674;SDS011;60752;53.962;9.614;2023-04-27T16:32:38;5.90;;;1.90;;
72674;SDS011;60752;53.962;9.614;2023-04-27T17:02:40;4.70;;;1.77;;
72674;SDS011;60752;53.962;9.614;2023-04-27T17:32:41;3.97;;;1.67;;
72674;SDS011;60752;53.962;9.614;2023-04-27T18:02:44;4.20;;;1.70;;
72674;SDS011;60752;53.962;9.614;2023-04-27T18:32:46;6.23;;;1.80;;
72674;SDS011;60752;53.962;9.614;2023-04-27T19:02:48;6.30;;;2.67;;
72674;SDS011;60752;53.962;9.614;2023-04-27T19:32:50;5.80;;;2.47;;
72674;SDS011;60752;53.962;9.614;2023-04-27T20:02:51;6.90;;;2.93;;
72674;SDS011;60752;53.962;9.614;2023-04-27T20:32:53;6.60;;;3.37;;
72674;SDS011;60752;53.962;9.614;2023-04-27T21:02:55;5.97;;;2.50;;
72674;SDS011;60752;53.962;9.614;2023-04-27T21:32:57;4.97;;;2.00;;
72674;SDS011;60752;53.962;9.614;2023-04-27T22:02:59;4.73;;;1.90;;
72674;SDS011;60752;53.962;9.614;2023-04-27T22:33:01;4.97;;;2.00;;
72674;SDS011;60752;53.962;9.614;2023-04-27T23:03:03;8.90;;;3.93;;
72674;SDS011;60752;53.962;9.614;2023-04-27T23:33:05;5.97;;;2.50;;
